createdAt,value
2018-10-18T00:00:21.136Z,23.10
2018-10-18T00:01:21.121Z,23.79
2018-10-18T00:02:21.111Z,26.39
2018-10-18T00:03:21.207Z,24.00
2018-10-18T00:04:21.090Z,25.50
2018-10-18T00:05:21.080Z,24.70
2018-10-18T00:06:21.069Z,27.50
2018-10-18T00:07:21.055Z,24.29
2018-10-18T00:08:21.047Z,24.79
2018-10-18T00:09:21.035Z,25.79
2018-10-18T00:10:21.024Z,23.60
2018-10-18T00:11:21.014Z,22.89
2018-10-18T00:12:21.003Z,23.79
2018-10-18T00:13:20.992Z,23.79
2018-10-18T00:14:20.982Z,23.39
2018-10-18T00:15:20.968Z,25.20
2018-10-18T00:16:20.960Z,24.10
2018-10-18T00:17:20.949Z,23.50
2018-10-18T00:18:20.938Z,25.10
2018-10-18T00:19:20.926Z,25.60
2018-10-18T00:20:20.917Z,25.00
2018-10-18T00:21:20.905Z,28.29
2018-10-18T00:22:20.895Z,26.60
2018-10-18T00:23:20.904Z,26.20
2018-10-18T00:24:20.874Z,25.79
2018-10-18T00:25:20.863Z,24.39
2018-10-18T00:26:20.851Z,24.70
2018-10-18T00:27:20.841Z,24.89
2018-10-18T00:28:20.829Z,25.60
2018-10-18T00:29:20.820Z,25.89
2018-10-18T00:30:20.807Z,26.10
2018-10-18T00:31:20.798Z,27.00
2018-10-18T00:32:20.788Z,25.39
2018-10-18T00:33:20.776Z,27.29
2018-10-18T00:34:20.764Z,25.50
2018-10-18T00:35:20.752Z,31.79
2018-10-18T00:36:20.746Z,32.20
2018-10-18T00:37:20.733Z,29.70
2018-10-18T00:38:20.719Z,27.29
2018-10-18T00:39:20.709Z,26.39
2018-10-18T00:40:20.699Z,30.00
2018-10-18T00:41:20.696Z,28.60
2018-10-18T00:42:20.679Z,29.70
2018-10-18T00:43:20.668Z,30.29
2018-10-18T00:44:20.658Z,28.20
2018-10-18T00:45:20.647Z,33.40
2018-10-18T00:46:20.634Z,31.20
2018-10-18T00:47:20.626Z,28.00
2018-10-18T00:48:20.613Z,28.89
2018-10-18T00:49:20.602Z,27.29
2018-10-18T00:50:20.591Z,26.29
2018-10-18T00:51:20.581Z,23.50
2018-10-18T00:52:20.574Z,23.89
2018-10-18T00:53:20.558Z,20.20
2018-10-18T00:54:20.549Z,21.70
2018-10-18T00:55:20.538Z,21.20
2018-10-18T00:56:20.531Z,19.89
2018-10-18T00:57:20.516Z,20.70
2018-10-18T00:58:20.509Z,21.79
2018-10-18T00:59:20.496Z,22.79
2018-10-18T01:00:20.484Z,22.60
2018-10-18T01:01:20.472Z,22.89
2018-10-18T01:02:20.461Z,23.79
2018-10-18T01:03:20.451Z,24.79
2018-10-18T01:04:20.442Z,26.60
2018-10-18T01:05:20.429Z,26.89
2018-10-18T01:06:20.430Z,25.10
2018-10-18T01:07:20.414Z,27.20
2018-10-18T01:08:20.397Z,28.89
2018-10-18T01:09:20.387Z,25.79
2018-10-18T01:10:20.375Z,31.00
2018-10-18T01:11:20.368Z,28.10
2018-10-18T01:12:20.438Z,31.79
2018-10-18T01:13:20.342Z,30.60
2018-10-18T01:14:20.333Z,28.29
2018-10-18T01:15:20.323Z,30.39
2018-10-18T01:16:20.313Z,32.59
2018-10-18T01:17:20.303Z,31.50
2018-10-18T01:18:20.291Z,30.39
2018-10-18T01:19:20.279Z,27.29
2018-10-18T01:20:20.269Z,25.60
2018-10-18T01:21:20.255Z,25.60
2018-10-18T01:22:20.247Z,25.00
2018-10-18T01:23:20.234Z,27.50
2018-10-18T01:24:20.226Z,25.10
2018-10-18T01:25:20.214Z,25.60
2018-10-18T01:26:20.204Z,24.29
2018-10-18T01:27:20.193Z,24.50
2018-10-18T01:28:20.180Z,23.39
2018-10-18T01:29:20.170Z,24.89
2018-10-18T01:30:20.160Z,23.70
2018-10-18T01:31:20.149Z,23.60
2018-10-18T01:32:20.139Z,23.50
2018-10-18T01:33:20.129Z,24.29
2018-10-18T01:34:20.117Z,24.70
2018-10-18T01:35:20.107Z,27.20
2018-10-18T01:36:20.096Z,27.89
2018-10-18T01:37:20.082Z,26.79
2018-10-18T01:38:20.073Z,26.70
2018-10-18T01:39:20.062Z,28.20
2018-10-18T01:40:20.052Z,29.00
2018-10-18T01:41:20.045Z,28.60
2018-10-18T01:42:20.052Z,27.29
2018-10-18T01:43:20.020Z,28.20
2018-10-18T01:44:20.009Z,30.20
2018-10-18T01:45:19.998Z,29.50
2018-10-18T01:46:19.986Z,27.70
2018-10-18T01:47:19.977Z,29.20
2018-10-18T01:48:19.971Z,26.89
2018-10-18T01:49:19.954Z,30.20
2018-10-18T01:50:19.944Z,29.39
2018-10-18T01:51:19.932Z,29.20
2018-10-18T01:52:19.921Z,29.70
2018-10-18T01:53:19.910Z,28.29
2018-10-18T01:54:19.899Z,34.29
2018-10-18T01:55:19.890Z,32.09
2018-10-18T01:56:19.878Z,30.89
2018-10-18T01:57:19.871Z,30.20
2018-10-18T01:58:19.856Z,31.60
2018-10-18T01:59:19.846Z,29.50
2018-10-18T02:00:19.930Z,30.39
2018-10-18T02:01:19.824Z,31.79
2018-10-18T02:02:19.817Z,28.70
2018-10-18T02:03:19.802Z,28.89
2018-10-18T02:04:19.794Z,29.39
2018-10-18T02:05:19.781Z,28.00
2018-10-18T02:06:19.770Z,27.70
2018-10-18T02:07:19.764Z,28.29
2018-10-18T02:08:19.747Z,27.29
2018-10-18T02:09:19.740Z,26.79
2018-10-18T02:10:19.732Z,28.60
2018-10-18T02:11:19.720Z,24.89
2018-10-18T02:12:19.705Z,27.60
2018-10-18T02:13:19.696Z,25.39
2018-10-18T02:14:19.685Z,25.79
2018-10-18T02:15:19.675Z,25.10
2018-10-18T02:16:19.663Z,22.70
2018-10-18T02:17:19.651Z,24.39
2018-10-18T02:18:19.781Z,26.39
2018-10-18T02:19:19.810Z,25.50
2018-10-18T02:20:19.619Z,25.60
2018-10-18T02:21:19.607Z,25.10
2018-10-18T02:22:19.599Z,26.00
2018-10-18T02:23:19.585Z,23.60
2018-10-18T02:24:19.577Z,24.60
2018-10-18T02:25:19.686Z,23.79
2018-10-18T02:26:19.557Z,24.79
2018-10-18T02:27:19.543Z,23.70
2018-10-18T02:28:19.535Z,22.79
2018-10-18T02:29:19.523Z,22.79
2018-10-18T02:30:19.573Z,21.70
2018-10-18T02:31:19.501Z,21.79
2018-10-18T02:32:19.488Z,22.39
2018-10-18T02:33:19.477Z,21.89
2018-10-18T02:34:19.469Z,21.00
2018-10-18T02:35:19.458Z,21.00
2018-10-18T02:36:19.554Z,21.50
2018-10-18T02:37:19.435Z,19.79
2018-10-18T02:38:19.424Z,20.50
2018-10-18T02:39:19.415Z,20.89
2018-10-18T02:40:19.402Z,21.29
2018-10-18T02:41:19.391Z,22.00
2018-10-18T02:42:19.489Z,20.89
2018-10-18T02:43:19.369Z,23.10
2018-10-18T02:44:19.364Z,18.39
2018-10-18T02:45:19.349Z,19.50
2018-10-18T02:46:19.337Z,20.00
2018-10-18T02:47:19.328Z,20.10
2018-10-18T02:48:19.415Z,20.00
2018-10-18T02:49:19.307Z,20.10
2018-10-18T02:50:19.295Z,20.39
2018-10-18T02:51:19.296Z,19.50
2018-10-18T02:52:19.274Z,20.79
2018-10-18T02:53:19.263Z,21.89
2018-10-18T02:54:19.341Z,22.79
2018-10-18T02:55:19.240Z,23.20
2018-10-18T02:56:19.231Z,21.39
2018-10-18T02:57:19.223Z,22.50
2018-10-18T02:58:19.208Z,21.50
2018-10-18T02:59:19.197Z,19.60
2018-10-18T03:00:19.223Z,23.20
2018-10-18T03:01:19.175Z,20.39
2018-10-18T03:02:19.167Z,21.29
2018-10-18T03:03:19.156Z,19.70
2018-10-18T03:04:19.145Z,20.39
2018-10-18T03:05:19.132Z,21.50
2018-10-18T03:06:19.224Z,22.00
2018-10-18T03:07:19.111Z,21.20
2018-10-18T03:08:19.102Z,21.10
2018-10-18T03:09:19.090Z,19.89
2018-10-18T03:10:19.083Z,20.70
2018-10-18T03:11:19.068Z,20.79
2018-10-18T03:12:19.235Z,21.60
2018-10-18T03:13:19.048Z,21.29
2018-10-18T03:14:19.035Z,23.00
2018-10-18T03:15:19.024Z,21.29
2018-10-18T03:16:19.015Z,19.70
2018-10-18T03:17:19.002Z,19.29
2018-10-18T03:18:19.076Z,23.60
2018-10-18T03:19:18.986Z,20.70
2018-10-18T03:20:18.973Z,23.39
2018-10-18T03:21:18.959Z,23.79
2018-10-18T03:22:18.955Z,22.39
2018-10-18T03:23:18.941Z,21.89
2018-10-18T03:24:19.035Z,22.20
2018-10-18T03:25:18.915Z,21.70
2018-10-18T03:26:18.907Z,22.70
2018-10-18T03:27:18.895Z,22.89
2018-10-18T03:28:18.884Z,22.70
2018-10-18T03:29:18.871Z,22.10
2018-10-18T03:30:19.018Z,21.60
2018-10-18T03:31:18.857Z,20.79
2018-10-18T03:32:18.841Z,23.29
2018-10-18T03:33:18.832Z,21.70
2018-10-18T03:34:18.824Z,23.79
2018-10-18T03:35:18.808Z,23.29
2018-10-18T03:36:18.876Z,23.10
2018-10-18T03:37:18.786Z,21.20
2018-10-18T03:38:18.774Z,22.10
2018-10-18T03:39:18.768Z,21.70
2018-10-18T03:40:18.757Z,23.50
2018-10-18T03:41:18.763Z,22.79
2018-10-18T03:42:18.922Z,21.89
2018-10-18T03:43:18.727Z,22.79
2018-10-18T03:44:18.710Z,22.60
2018-10-18T03:45:18.697Z,23.29
2018-10-18T03:46:18.689Z,23.00
2018-10-18T03:47:18.678Z,22.60
2018-10-18T03:48:18.673Z,21.20
2018-10-18T03:49:18.657Z,22.29
2018-10-18T03:50:18.646Z,21.89
2018-10-18T03:51:18.633Z,20.29
2018-10-18T03:52:18.624Z,22.70
2018-10-18T03:53:18.612Z,21.00
2018-10-18T03:54:18.694Z,22.20
2018-10-18T03:55:18.592Z,21.79
2018-10-18T03:56:18.580Z,21.29
2018-10-18T03:57:18.570Z,23.39
2018-10-18T03:58:18.559Z,20.79
2018-10-18T03:59:18.546Z,20.60
2018-10-18T04:00:18.617Z,21.50
2018-10-18T04:01:18.526Z,23.10
2018-10-18T04:02:18.514Z,31.20
2018-10-18T04:03:18.503Z,47.20
2018-10-18T04:04:18.494Z,27.50
2018-10-18T04:05:18.483Z,37.40
2018-10-18T04:06:18.567Z,61.70
2018-10-18T04:07:18.458Z,78.50
2018-10-18T04:08:18.449Z,118.69
2018-10-18T04:09:18.441Z,66.59
2018-10-18T04:10:18.427Z,71.09
2018-10-18T04:11:18.417Z,69.59
2018-10-18T04:12:18.482Z,61.70
2018-10-18T04:13:18.657Z,36.29
2018-10-18T04:14:18.387Z,42.09
2018-10-18T04:15:18.374Z,52.09
2018-10-18T04:16:18.362Z,50.79
2018-10-18T04:17:18.354Z,47.90
2018-10-18T04:18:18.451Z,43.40
2018-10-18T04:19:18.329Z,42.90
2018-10-18T04:20:18.319Z,59.59
2018-10-18T04:21:18.309Z,59.29
2018-10-18T04:22:18.299Z,58.79
2018-10-18T04:23:18.288Z,60.00
2018-10-18T04:24:18.286Z,56.59
2018-10-18T04:25:18.279Z,57.79
2018-10-18T04:26:18.255Z,54.90
2018-10-18T04:27:18.244Z,54.70
2018-10-18T04:28:18.233Z,56.59
2018-10-18T04:29:18.223Z,56.79
2018-10-18T04:30:18.281Z,56.90
2018-10-18T04:31:18.200Z,58.79
2018-10-18T04:32:18.190Z,57.59
2018-10-18T04:33:18.181Z,48.79
2018-10-18T04:34:18.169Z,57.90
2018-10-18T04:35:18.160Z,58.40
2018-10-18T04:36:18.264Z,59.29
2018-10-18T04:37:18.209Z,48.50
2018-10-18T04:38:18.127Z,56.09
2018-10-18T04:39:18.126Z,57.20
2018-10-18T04:40:18.102Z,57.79
2018-10-18T04:41:18.093Z,59.50
2018-10-18T04:42:18.171Z,60.40
2018-10-18T04:43:18.077Z,56.79
2018-10-18T04:44:18.061Z,61.79
2018-10-18T04:45:18.050Z,66.09
2018-10-18T04:46:18.040Z,72.00
2018-10-18T04:47:18.157Z,63.79
2018-10-18T04:48:18.220Z,68.09
2018-10-18T04:49:18.009Z,70.00
2018-10-18T04:50:17.998Z,71.00
2018-10-18T04:51:17.986Z,54.50
2018-10-18T04:52:17.975Z,61.40
2018-10-18T04:53:17.965Z,57.09
2018-10-18T04:54:17.951Z,71.69
2018-10-18T04:55:17.960Z,61.79
2018-10-18T04:56:17.936Z,56.40
2018-10-18T04:57:17.921Z,51.90
2018-10-18T04:58:17.908Z,54.59
2018-10-18T04:59:17.911Z,62.90
2018-10-18T05:00:17.891Z,118.69
2018-10-18T05:01:18.047Z,70.80
2018-10-18T05:02:17.864Z,81.59
2018-10-18T05:03:17.856Z,77.19
2018-10-18T05:04:17.852Z,72.19
2018-10-18T05:05:17.833Z,69.00
2018-10-18T05:06:17.822Z,63.20
2018-10-18T05:07:17.932Z,59.90
2018-10-18T05:08:17.801Z,61.79
2018-10-18T05:09:17.792Z,57.00
2018-10-18T05:10:17.780Z,58.59
2018-10-18T05:11:17.855Z,52.50
2018-10-18T05:12:17.759Z,55.90
2018-10-18T05:13:17.890Z,53.50
2018-10-18T05:14:17.735Z,49.90
2018-10-18T05:15:17.726Z,48.20
2018-10-18T05:16:17.715Z,47.90
2018-10-18T05:17:17.705Z,56.50
2018-10-18T05:18:17.695Z,51.20
2018-10-18T05:19:17.791Z,56.20
2018-10-18T05:20:17.680Z,53.00
2018-10-18T05:21:17.662Z,61.90
2018-10-18T05:22:17.650Z,57.29
2018-10-18T05:23:17.639Z,57.40
2018-10-18T05:24:17.627Z,62.59
2018-10-18T05:25:17.725Z,55.70
2018-10-18T05:26:17.609Z,59.59
2018-10-18T05:27:17.600Z,50.40
2018-10-18T05:28:17.586Z,69.69
2018-10-18T05:29:17.577Z,57.59
2018-10-18T05:30:17.567Z,57.59
2018-10-18T05:31:17.707Z,67.00
2018-10-18T05:32:17.546Z,60.50
2018-10-18T05:33:17.537Z,54.70
2018-10-18T05:34:17.523Z,60.90
2018-10-18T05:35:17.511Z,62.70
2018-10-18T05:36:17.498Z,57.70
2018-10-18T05:37:17.593Z,58.79
2018-10-18T05:38:17.477Z,56.79
2018-10-18T05:39:17.468Z,58.70
2018-10-18T05:40:17.455Z,56.59
2018-10-18T05:41:17.444Z,58.20
2018-10-18T05:42:17.434Z,63.40
2018-10-18T05:43:17.490Z,70.40
2018-10-18T05:44:17.412Z,53.20
2018-10-18T05:45:17.401Z,58.59
2018-10-18T05:46:17.390Z,58.70
2018-10-18T05:47:17.448Z,53.09
2018-10-18T05:48:17.370Z,55.20
2018-10-18T05:49:17.518Z,53.59
2018-10-18T05:50:17.352Z,51.79
2018-10-18T05:51:17.335Z,54.09
2018-10-18T05:52:17.327Z,53.59
2018-10-18T05:53:17.503Z,59.40
2018-10-18T05:54:17.374Z,67.69
2018-10-18T05:55:17.364Z,63.20
2018-10-18T05:56:17.283Z,61.79
2018-10-18T05:57:17.272Z,65.69
2018-10-18T05:58:17.261Z,57.09
2018-10-18T05:59:17.249Z,55.29
2018-10-18T06:00:17.343Z,54.90
2018-10-18T06:01:17.492Z,58.59
2018-10-18T06:02:17.215Z,57.29
2018-10-18T06:03:17.205Z,46.09
2018-10-18T06:04:17.197Z,55.70
2018-10-18T06:05:17.184Z,56.09
2018-10-18T06:06:17.175Z,56.90
2018-10-18T06:07:17.329Z,51.09
2018-10-18T06:08:17.154Z,51.50
2018-10-18T06:09:17.141Z,51.79
2018-10-18T06:10:17.259Z,56.20
2018-10-18T06:11:17.119Z,55.79
2018-10-18T06:12:17.107Z,50.59
2018-10-18T06:13:17.202Z,55.20
2018-10-18T06:14:17.085Z,54.09
2018-10-18T06:15:17.076Z,53.40
2018-10-18T06:16:17.063Z,50.90
2018-10-18T06:17:17.052Z,58.59
2018-10-18T06:18:17.040Z,47.50
2018-10-18T06:19:17.125Z,54.20
2018-10-18T06:20:17.020Z,54.20
2018-10-18T06:21:17.009Z,49.90
2018-10-18T06:22:17.000Z,48.00
2018-10-18T06:23:17.093Z,50.90
2018-10-18T06:24:16.976Z,44.50
2018-10-18T06:25:17.111Z,45.70
2018-10-18T06:26:16.956Z,48.00
2018-10-18T06:27:16.949Z,46.29
2018-10-18T06:28:16.934Z,43.79
2018-10-18T06:29:17.031Z,45.79
2018-10-18T06:30:16.912Z,47.20
2018-10-18T06:31:16.900Z,43.79
2018-10-18T06:32:16.888Z,45.40
2018-10-18T06:33:16.878Z,45.79
2018-10-18T06:34:16.867Z,48.09
2018-10-18T06:35:16.856Z,47.00
2018-10-18T06:36:16.845Z,49.50
2018-10-18T06:37:16.924Z,51.70
2018-10-18T06:38:16.822Z,45.70
2018-10-18T06:39:17.000Z,49.40
2018-10-18T06:40:16.801Z,50.40
2018-10-18T06:41:16.843Z,48.70
2018-10-18T06:42:16.788Z,48.29
2018-10-18T06:43:16.846Z,45.09
2018-10-18T06:44:16.757Z,47.70
2018-10-18T06:45:16.749Z,49.00
2018-10-18T06:46:16.736Z,49.50
2018-10-18T06:47:16.791Z,49.70
2018-10-18T06:48:16.715Z,52.79
2018-10-18T06:49:16.871Z,45.09
2018-10-18T06:50:16.692Z,50.40
2018-10-18T06:51:16.683Z,48.79
2018-10-18T06:52:16.674Z,44.09
2018-10-18T06:53:16.660Z,49.50
2018-10-18T06:54:16.800Z,46.29
2018-10-18T06:55:16.739Z,46.09
2018-10-18T06:56:16.627Z,48.29
2018-10-18T06:57:16.615Z,49.09
2018-10-18T06:58:16.604Z,45.90
2018-10-18T06:59:16.601Z,56.59
2018-10-18T07:00:16.664Z,53.50
2018-10-18T07:01:16.572Z,57.90
2018-10-18T07:02:16.560Z,58.40
2018-10-18T07:03:16.548Z,53.20
2018-10-18T07:04:16.537Z,51.90
2018-10-18T07:05:16.528Z,56.20
2018-10-18T07:06:16.593Z,49.50
2018-10-18T07:07:16.506Z,50.50
2018-10-18T07:08:16.497Z,50.90
2018-10-18T07:09:16.486Z,46.90
2018-10-18T07:10:16.575Z,41.59
2018-10-18T07:11:16.461Z,46.09
2018-10-18T07:12:16.473Z,52.90
2018-10-18T07:13:16.442Z,54.09
2018-10-18T07:14:16.430Z,48.59
2018-10-18T07:15:16.421Z,49.79
2018-10-18T07:16:16.408Z,51.50
2018-10-18T07:17:16.396Z,42.90
2018-10-18T07:18:16.432Z,49.20
2018-10-18T07:19:16.376Z,47.79
2018-10-18T07:20:16.366Z,49.40
2018-10-18T07:21:16.354Z,50.59
2018-10-18T07:22:16.343Z,47.40
2018-10-18T07:23:16.333Z,48.09
2018-10-18T07:24:16.369Z,49.09
2018-10-18T07:25:16.342Z,49.90
2018-10-18T07:26:16.298Z,48.00
2018-10-18T07:27:16.291Z,47.79
2018-10-18T07:28:16.276Z,43.09
2018-10-18T07:29:16.266Z,45.40
2018-10-18T07:30:16.390Z,49.40
2018-10-18T07:31:16.245Z,49.50
2018-10-18T07:32:16.232Z,47.79
2018-10-18T07:33:16.225Z,48.59
2018-10-18T07:34:16.213Z,48.40
2018-10-18T07:35:16.202Z,50.20
2018-10-18T07:36:16.332Z,48.20
2018-10-18T07:37:16.180Z,50.29
2018-10-18T07:38:16.170Z,49.50
2018-10-18T07:39:16.157Z,46.00
2018-10-18T07:40:16.148Z,45.90
2018-10-18T07:41:16.323Z,47.59
2018-10-18T07:42:16.220Z,47.00
2018-10-18T07:43:16.114Z,45.00
2018-10-18T07:44:16.104Z,49.09
2018-10-18T07:45:16.092Z,48.20
2018-10-18T07:46:16.081Z,49.79
2018-10-18T07:47:16.070Z,50.59
2018-10-18T07:48:16.100Z,48.20
2018-10-18T07:49:16.050Z,45.20
2018-10-18T07:50:16.038Z,45.40
2018-10-18T07:51:16.034Z,47.09
2018-10-18T07:52:16.017Z,45.59
2018-10-18T07:53:16.134Z,43.90
2018-10-18T07:54:16.081Z,45.79
2018-10-18T07:55:15.986Z,46.20
2018-10-18T07:56:15.973Z,47.09
2018-10-18T07:57:15.965Z,43.90
2018-10-18T07:58:15.953Z,49.09
2018-10-18T07:59:15.940Z,46.00
2018-10-18T08:00:16.286Z,42.79
2018-10-18T08:01:15.918Z,46.50
2018-10-18T08:02:15.908Z,43.90
2018-10-18T08:03:15.897Z,47.70
2018-10-18T08:04:15.885Z,49.29
2018-10-18T08:05:15.875Z,47.59
2018-10-18T08:06:15.862Z,48.50
2018-10-18T08:07:15.963Z,47.79
2018-10-18T08:08:15.843Z,48.29
2018-10-18T08:09:15.830Z,46.79
2018-10-18T08:10:15.820Z,44.50
2018-10-18T08:11:15.810Z,49.70
2018-10-18T08:12:15.799Z,51.09
2018-10-18T08:13:15.882Z,50.90
2018-10-18T08:14:15.783Z,52.00
2018-10-18T08:15:15.766Z,46.59
2018-10-18T08:16:15.786Z,48.59
2018-10-18T08:17:15.778Z,47.59
2018-10-18T08:18:15.732Z,49.00
2018-10-18T08:19:15.812Z,46.40
2018-10-18T08:20:15.712Z,43.50
2018-10-18T08:21:15.698Z,42.00
2018-10-18T08:22:15.691Z,43.29
2018-10-18T08:23:15.680Z,41.90
2018-10-18T08:24:15.667Z,41.40
2018-10-18T08:25:15.788Z,41.20
2018-10-18T08:26:15.644Z,47.09
2018-10-18T08:27:15.636Z,47.50
2018-10-18T08:28:15.625Z,49.09
2018-10-18T08:29:15.611Z,50.70
2018-10-18T08:30:15.601Z,49.50
2018-10-18T08:31:15.838Z,54.29
2018-10-18T08:32:15.582Z,54.00
2018-10-18T08:33:15.571Z,56.29
2018-10-18T08:34:15.560Z,63.40
2018-10-18T08:35:15.549Z,48.79
2018-10-18T08:36:15.537Z,57.59
2018-10-18T08:37:15.650Z,51.09
2018-10-18T08:38:15.655Z,56.50
2018-10-18T08:39:15.506Z,55.79
2018-10-18T08:40:15.495Z,51.20
2018-10-18T08:41:15.481Z,57.90
2018-10-18T08:42:15.472Z,61.40
2018-10-18T08:43:15.510Z,65.09
2018-10-18T08:44:15.484Z,63.79
2018-10-18T08:45:15.441Z,64.40
2018-10-18T08:46:15.427Z,63.79
2018-10-18T08:47:15.418Z,62.50
2018-10-18T08:48:15.407Z,76.00
2018-10-18T08:49:15.541Z,75.00
2018-10-18T08:50:15.385Z,71.09
2018-10-18T08:51:15.373Z,76.90
2018-10-18T08:52:15.364Z,62.50
2018-10-18T08:53:15.354Z,63.79
2018-10-18T08:54:15.343Z,68.00
2018-10-18T08:55:15.413Z,71.19
2018-10-18T08:56:15.321Z,66.69
2018-10-18T08:57:15.322Z,73.30
2018-10-18T08:58:15.299Z,81.19
2018-10-18T08:59:15.350Z,86.00
2018-10-18T09:00:15.277Z,89.90
2018-10-18T09:01:15.395Z,86.59
2018-10-18T09:02:15.257Z,90.00
2018-10-18T09:03:15.247Z,82.50
2018-10-18T09:04:15.236Z,88.59
2018-10-18T09:05:15.226Z,84.80
2018-10-18T09:06:15.212Z,70.30
2018-10-18T09:07:15.319Z,75.90
2018-10-18T09:08:15.193Z,66.80
2018-10-18T09:09:15.249Z,70.80
2018-10-18T09:10:15.169Z,66.59
2018-10-18T09:11:15.161Z,68.19
2018-10-18T09:12:15.147Z,67.50
2018-10-18T09:13:15.225Z,64.69
2018-10-18T09:14:15.127Z,74.90
2018-10-18T09:15:15.118Z,79.80
2018-10-18T09:16:15.104Z,84.90
2018-10-18T09:17:15.097Z,83.80
2018-10-18T09:18:15.091Z,81.09
2018-10-18T09:19:15.124Z,82.50
2018-10-18T09:20:15.063Z,83.40
2018-10-18T09:21:15.054Z,86.50
2018-10-18T09:22:15.042Z,93.19
2018-10-18T09:23:15.029Z,90.80
2018-10-18T09:24:15.018Z,90.00
2018-10-18T09:25:15.171Z,99.40
2018-10-18T09:26:14.995Z,92.80
2018-10-18T09:27:14.993Z,91.59
2018-10-18T09:28:14.976Z,94.59
2018-10-18T09:29:14.967Z,92.40
2018-10-18T09:30:15.030Z,91.80
2018-10-18T09:31:15.097Z,98.59
2018-10-18T09:32:14.933Z,92.19
2018-10-18T09:33:14.924Z,88.69
2018-10-18T09:34:14.912Z,100.69
2018-10-18T09:35:14.900Z,106.09
2018-10-18T09:36:14.889Z,109.69
2018-10-18T09:37:14.946Z,107.19
2018-10-18T09:38:14.944Z,115.69
2018-10-18T09:39:14.859Z,108.40
2018-10-18T09:40:14.847Z,113.09
2018-10-18T09:41:14.837Z,103.80
2018-10-18T09:42:14.824Z,114.50
2018-10-18T09:43:14.933Z,111.40
2018-10-18T09:44:14.861Z,107.19
2018-10-18T09:45:14.793Z,115.50
2018-10-18T09:46:14.781Z,112.69
2018-10-18T09:47:14.770Z,111.90
2018-10-18T09:48:14.759Z,112.40
2018-10-18T09:49:14.853Z,110.90
2018-10-18T09:50:14.745Z,115.69
2018-10-18T09:51:14.729Z,112.69
2018-10-18T09:52:14.718Z,111.80
2018-10-18T09:53:14.706Z,108.19
2018-10-18T09:54:14.697Z,117.00
2018-10-18T09:55:14.765Z,113.90
2018-10-18T09:56:14.681Z,114.69
2018-10-18T09:57:14.668Z,111.40
2018-10-18T09:58:14.652Z,107.59
2018-10-18T09:59:14.641Z,109.40
2018-10-18T10:00:14.639Z,111.90
2018-10-18T10:01:14.733Z,111.80
2018-10-18T10:02:14.609Z,111.19
2018-10-18T10:03:14.596Z,108.19
2018-10-18T10:04:14.636Z,110.59
2018-10-18T10:05:14.576Z,107.59
2018-10-18T10:06:14.566Z,105.40
2018-10-18T10:07:14.646Z,102.90
2018-10-18T10:08:14.546Z,104.09
2018-10-18T10:09:14.534Z,102.90
2018-10-18T10:10:14.523Z,100.69
2018-10-18T10:11:14.514Z,104.80
2018-10-18T10:12:14.511Z,97.30
2018-10-18T10:13:14.614Z,104.80
2018-10-18T10:14:14.479Z,101.69
2018-10-18T10:15:14.471Z,99.00
2018-10-18T10:16:14.458Z,106.59
2018-10-18T10:17:14.546Z,105.00
2018-10-18T10:18:14.440Z,101.40
2018-10-18T10:19:14.429Z,101.30
2018-10-18T10:20:14.415Z,98.40
2018-10-18T10:21:14.402Z,101.00
2018-10-18T10:22:14.392Z,95.09
2018-10-18T10:23:14.380Z,91.80
2018-10-18T10:24:14.371Z,97.19
2018-10-18T10:25:14.430Z,96.00
2018-10-18T10:26:14.350Z,97.59
2018-10-18T10:27:14.337Z,95.09
2018-10-18T10:28:14.329Z,98.00
2018-10-18T10:29:14.317Z,98.30
2018-10-18T10:30:14.310Z,101.30
2018-10-18T10:31:14.382Z,98.50
2018-10-18T10:32:14.282Z,96.30
2018-10-18T10:33:14.324Z,98.00
2018-10-18T10:34:14.262Z,97.59
2018-10-18T10:35:14.371Z,94.59
2018-10-18T10:36:14.240Z,96.69
2018-10-18T10:37:14.310Z,97.50
2018-10-18T10:38:14.219Z,97.40
2018-10-18T10:39:14.463Z,98.30
2018-10-18T10:40:14.263Z,94.40
2018-10-18T10:41:14.288Z,91.59
2018-10-18T10:42:14.180Z,89.30
2018-10-18T10:43:14.163Z,90.00
2018-10-18T10:44:14.231Z,93.09
2018-10-18T10:45:14.181Z,91.09
2018-10-18T10:46:14.183Z,92.69
2018-10-18T10:47:14.120Z,98.90
2018-10-18T10:48:14.271Z,94.09
2018-10-18T10:49:14.247Z,95.80
2018-10-18T10:50:14.168Z,99.59
2018-10-18T10:51:14.332Z,94.00
2018-10-18T10:52:14.179Z,88.50
2018-10-18T10:53:14.063Z,85.69
2018-10-18T10:54:14.113Z,89.00
2018-10-18T10:55:14.039Z,91.69
2018-10-18T10:56:14.119Z,98.80
2018-10-18T10:57:14.146Z,91.19
2018-10-18T10:58:14.069Z,94.00
2018-10-18T10:59:13.991Z,96.50
2018-10-18T11:00:14.059Z,88.90
2018-10-18T11:01:13.969Z,94.59
2018-10-18T11:02:14.042Z,92.59
2018-10-18T11:03:13.986Z,97.50
2018-10-18T11:04:13.937Z,96.40
2018-10-18T11:05:13.927Z,91.00
2018-10-18T11:06:14.089Z,87.30
2018-10-18T11:07:13.903Z,85.09
2018-10-18T11:08:14.013Z,88.19
2018-10-18T11:09:13.928Z,122.40
2018-10-18T11:10:13.872Z,99.80
2018-10-18T11:11:13.860Z,84.19
2018-10-18T11:12:13.907Z,87.59
2018-10-18T11:13:13.839Z,93.59
2018-10-18T11:14:13.929Z,86.19
2018-10-18T11:15:13.891Z,75.90
2018-10-18T11:16:13.807Z,79.90
2018-10-18T11:17:13.907Z,54.09
2018-10-18T11:18:13.898Z,75.19
2018-10-18T11:19:13.772Z,69.19
2018-10-18T11:20:13.796Z,69.09
2018-10-18T11:21:13.915Z,62.09
2018-10-18T11:22:13.746Z,53.20
2018-10-18T11:23:13.731Z,53.00
2018-10-18T11:24:13.888Z,53.70
2018-10-18T11:25:13.710Z,51.29
2018-10-18T11:26:13.822Z,58.29
2018-10-18T11:27:13.780Z,49.40
2018-10-18T11:28:13.679Z,48.29
2018-10-18T11:29:13.666Z,42.59
2018-10-18T11:30:13.786Z,59.90
2018-10-18T11:31:13.645Z,45.29
2018-10-18T11:32:13.704Z,40.50
2018-10-18T11:33:13.747Z,52.09
2018-10-18T11:34:13.634Z,46.50
2018-10-18T11:35:13.603Z,53.00
2018-10-18T11:36:13.695Z,54.00
2018-10-18T11:37:13.580Z,46.79
2018-10-18T11:38:13.642Z,37.59
2018-10-18T11:39:13.557Z,36.59
2018-10-18T11:40:13.546Z,31.00
2018-10-18T11:41:13.536Z,34.00
2018-10-18T11:42:13.577Z,30.60
2018-10-18T11:43:13.513Z,33.90
2018-10-18T11:44:13.555Z,29.39
2018-10-18T11:45:13.493Z,30.29
2018-10-18T11:46:13.480Z,28.29
2018-10-18T11:47:13.470Z,28.10
2018-10-18T11:48:13.552Z,30.29
2018-10-18T11:49:13.451Z,30.00
2018-10-18T11:50:13.533Z,30.70
2018-10-18T11:51:13.426Z,29.60
2018-10-18T11:52:13.418Z,29.79
2018-10-18T11:53:13.406Z,29.50
2018-10-18T11:54:13.481Z,28.29
2018-10-18T11:55:13.382Z,29.29
2018-10-18T11:56:13.462Z,28.29
2018-10-18T11:57:13.362Z,34.59
2018-10-18T11:58:13.353Z,28.00
2018-10-18T11:59:13.485Z,26.60
2018-10-18T12:00:13.328Z,26.10
2018-10-18T12:01:13.382Z,26.79
2018-10-18T12:02:13.365Z,26.79
2018-10-18T12:03:13.298Z,26.60
2018-10-18T12:04:13.286Z,28.50
2018-10-18T12:05:13.351Z,26.20
2018-10-18T12:06:13.270Z,25.79
2018-10-18T12:07:13.254Z,26.10
2018-10-18T12:08:13.431Z,26.10
2018-10-18T12:09:13.230Z,24.20
2018-10-18T12:10:13.222Z,24.70
2018-10-18T12:11:13.259Z,24.70
2018-10-18T12:12:13.199Z,26.10
2018-10-18T12:13:13.200Z,27.10
2018-10-18T12:14:13.249Z,24.39
2018-10-18T12:15:13.165Z,26.79
2018-10-18T12:16:13.155Z,25.60
2018-10-18T12:17:13.231Z,28.39
2018-10-18T12:18:13.135Z,26.10
2018-10-18T12:19:13.256Z,26.70
2018-10-18T12:20:13.213Z,25.39
2018-10-18T12:21:13.102Z,27.60
2018-10-18T12:22:13.092Z,25.39
2018-10-18T12:23:13.191Z,24.60
2018-10-18T12:24:13.067Z,28.70
2018-10-18T12:25:13.062Z,24.70
2018-10-18T12:26:13.125Z,25.60
2018-10-18T12:27:13.043Z,25.00
2018-10-18T12:28:13.028Z,25.70
2018-10-18T12:29:13.108Z,26.50
2018-10-18T12:30:13.061Z,25.20
2018-10-18T12:31:12.995Z,26.39
2018-10-18T12:32:13.070Z,24.79
2018-10-18T12:33:12.974Z,25.10
2018-10-18T12:34:12.965Z,26.10
2018-10-18T12:35:13.039Z,26.10
2018-10-18T12:36:12.939Z,26.10
2018-10-18T12:37:12.929Z,27.00
2018-10-18T12:38:13.024Z,27.10
2018-10-18T12:39:12.911Z,25.20
2018-10-18T12:40:12.956Z,25.29
2018-10-18T12:41:13.111Z,25.60
2018-10-18T12:42:12.879Z,24.79
2018-10-18T12:43:12.865Z,23.70
2018-10-18T12:44:13.011Z,24.29
2018-10-18T12:45:12.843Z,25.39
2018-10-18T12:46:12.834Z,25.39
2018-10-18T12:47:12.822Z,26.89
2018-10-18T12:48:12.923Z,26.20
2018-10-18T12:49:12.802Z,25.50
2018-10-18T12:50:12.875Z,25.00
2018-10-18T12:51:12.781Z,26.70